Time;durP1;ratioP1;P1;durP2;ratioP2;P2;SDS_P1;SDS_P2;PMS_P1;PMS_P2;Temp;Humidity;BMP_temperature;BMP_pressure;BME280_temperature;BME280_humidity;BME280_pressure;Samples;Min_cycle;Max_cycle;Signal;HPM_P1;HPM_P2
2024/01/03 00:01:44;;;;;;;5.60;1.23;;;7.90;99.90;;;;;;4139313;28;20046;-81
2024/01/03 00:03:45;;;;;;;6.05;1.35;;;7.90;99.90;;;;;;4124408;28;20126;-81
2024/01/03 00:05:46;;;;;;;4.20;1.17;;;7.90;99.90;;;;;;4123695;28;20388;-81
2024/01/03 00:07:47;;;;;;;3.25;0.70;;;7.80;99.90;;;;;;4138890;28;20047;-81
2024/01/03 00:09:52;;;;;;;9.68;1.90;;;7.90;99.90;;;;;;4134026;28;20038;-81
2024/01/03 00:11:55;;;;;;;9.30;0.90;;;;;;;;;;4135403;28;20075;-80
2024/01/03 00:14:24;;;;;;;6.88;1.20;;;7.80;99.90;;;;;;4121663;28;20045;-80
2024/01/03 00:16:26;;;;;;;5.75;0.93;;;7.70;99.90;;;;;;4133730;28;20411;-83
2024/01/03 00:18:34;;;;;;;6.13;1.33;;;7.80;99.90;;;;;;4134582;28;20109;-83
2024/01/03 00:20:35;;;;;;;5.43;1.92;;;7.80;99.90;;;;;;4130165;28;20061;-84
2024/01/03 00:22:37;;;;;;;7.40;1.58;;;7.80;99.90;;;;;;4135068;28;20051;-83
2024/01/03 00:24:47;;;;;;;6.93;1.77;;;7.80;99.90;;;;;;4131639;28;20050;-82
2024/01/03 00:26:48;;;;;;;2.90;0.45;;;8.20;99.90;;;;;;4135984;28;20197;-82
2024/01/03 00:28:49;;;;;;;9.15;0.80;;;8.00;99.90;;;;;;4135827;28;20069;-82
2024/01/03 00:30:50;;;;;;;4.40;0.68;;;7.80;99.90;;;;;;4123280;28;20046;-82
2024/01/03 00:32:51;;;;;;;5.03;0.63;;;7.70;99.90;;;;;;4134049;28;20042;-83
2024/01/03 00:34:52;;;;;;;5.00;0.52;;;7.70;99.90;;;;;;4120722;28;20051;-82
2024/01/03 00:36:54;;;;;;;6.35;1.00;;;7.90;99.90;;;;;;4101787;29;20105;-82
2024/01/03 00:38:55;;;;;;;4.93;0.77;;;7.70;99.90;;;;;;4117652;28;20047;-82
2024/01/03 00:40:59;;;;;;;4.88;0.65;;;7.90;99.90;;;;;;4135281;28;20133;-82
2024/01/03 00:43:00;;;;;;;6.32;1.90;;;8.00;99.90;;;;;;4135149;28;20539;-82
2024/01/03 00:45:00;;;;;;;4.78;1.35;;;7.60;99.90;;;;;;4134890;28;20046;-82
2024/01/03 00:47:01;;;;;;;4.32;0.60;;;7.60;99.90;;;;;;4134426;28;20050;-83
2024/01/03 00:49:02;;;;;;;6.03;0.93;;;7.60;99.90;;;;;;4117080;28;20039;-82
2024/01/03 00:51:04;;;;;;;8.13;0.88;;;8.00;99.90;;;;;;4134443;28;20125;-83
2024/01/03 00:53:04;;;;;;;7.53;0.88;;;7.50;99.90;;;;;;4134899;28;20537;-83
2024/01/03 00:55:06;;;;;;;2.15;0.70;;;7.60;99.90;;;;;;4117397;28;20058;-83
2024/01/03 00:57:07;;;;;;;8.35;1.10;;;7.50;99.90;;;;;;4134013;28;20046;-83
2024/01/03 00:59:09;;;;;;;3.65;0.57;;;7.60;99.90;;;;;;4134618;28;20069;-82
2024/01/03 01:01:11;;;;;;;9.85;1.73;;;7.50;99.90;;;;;;4134575;28;20108;-83
2024/01/03 01:03:13;;;;;;;4.43;1.65;;;7.60;99.90;;;;;;4133593;28;20054;-83
2024/01/03 01:05:14;;;;;;;6.07;1.23;;;7.50;99.90;;;;;;4126967;28;20054;-83
2024/01/03 01:07:15;;;;;;;11.80;0.93;;;7.60;99.90;;;;;;4118696;28;20058;-83
2024/01/03 01:09:21;;;;;;;5.75;0.63;;;7.60;99.90;;;;;;4118590;28;20042;-83
2024/01/03 01:11:22;;;;;;;11.55;1.70;;;7.50;99.90;;;;;;4120898;28;20042;-83
2024/01/03 01:13:23;;;;;;;14.50;2.13;;;8.20;99.90;;;;;;4134669;28;20065;-83
2024/01/03 01:15:23;;;;;;;8.68;1.33;;;7.50;99.90;;;;;;4134503;28;20050;-83
2024/01/03 01:17:25;;;;;;;6.80;1.00;;;7.80;99.90;;;;;;4134423;28;20066;-83
2024/01/03 01:19:26;;;;;;;8.40;1.92;;;7.60;99.90;;;;;;4133398;28;20129;-83
2024/01/03 01:21:27;;;;;;;8.32;0.82;;;7.50;99.90;;;;;;4131083;28;20043;-84
2024/01/03 01:23:28;;;;;;;7.70;1.65;;;8.30;99.90;;;;;;4121730;28;20054;-84
2024/01/03 01:25:30;;;;;;;6.07;1.38;;;7.60;99.90;;;;;;4101233;28;20058;-83
2024/01/03 01:27:30;;;;;;;11.45;1.35;;;7.60;99.90;;;;;;4118959;28;20049;-84
2024/01/03 01:29:32;;;;;;;5.30;0.95;;;7.60;99.90;;;;;;4118889;28;20539;-83
2024/01/03 01:31:33;;;;;;;5.90;1.30;;;8.10;99.90;;;;;;4132141;28;20047;-84
2024/01/03 01:33:33;;;;;;;2.10;0.70;;;7.60;99.90;;;;;;4134783;28;20414;-83
2024/01/03 01:35:35;;;;;;;4.82;0.50;;;7.60;99.90;;;;;;4133993;28;20046;-83
2024/01/03 01:37:36;;;;;;;9.35;2.00;;;7.90;99.90;;;;;;4134126;28;20507;-83
2024/01/03 01:39:36;;;;;;;12.45;2.58;;;7.80;99.90;;;;;;4133747;28;20060;-83
2024/01/03 01:41:37;;;;;;;8.48;1.50;;;7.70;99.90;;;;;;4133788;28;20466;-83
2024/01/03 01:43:38;;;;;;;13.20;1.70;;;7.50;99.90;;;;;;4134010;28;20080;-83
2024/01/03 01:45:39;;;;;;;7.60;1.23;;;7.50;99.90;;;;;;4133350;28;20057;-83
2024/01/03 01:47:42;;;;;;;8.48;1.45;;;7.50;99.90;;;;;;4132746;28;20506;-83
2024/01/03 01:49:44;;;;;;;5.53;0.90;;;7.50;99.90;;;;;;4125130;28;20818;-83
2024/01/03 01:51:46;;;;;;;11.50;1.70;;;7.50;99.90;;;;;;4109162;28;20050;-83
2024/01/03 01:53:47;;;;;;;12.57;1.33;;;8.10;99.90;;;;;;4133360;28;20046;-83
2024/01/03 01:55:49;;;;;;;6.70;1.27;;;7.50;99.90;;;;;;4133400;28;20042;-83
2024/01/03 01:57:51;;;;;;;12.73;1.20;;;7.60;99.90;;;;;;4133717;28;20506;-83
2024/01/03 01:59:52;;;;;;;12.52;1.10;;;8.00;99.90;;;;;;4133605;28;20096;-83
2024/01/03 02:01:54;;;;;;;5.72;0.95;;;7.60;99.90;;;;;;4133185;28;20051;-82
2024/01/03 02:03:55;;;;;;;7.25;1.50;;;7.60;99.90;;;;;;4124638;28;20054;-82
2024/01/03 02:05:56;;;;;;;19.77;1.85;;;7.60;99.90;;;;;;4117204;28;20042;-83
2024/01/03 02:07:58;;;;;;;12.95;1.75;;;7.50;99.90;;;;;;4127922;28;20046;-83
2024/01/03 02:09:58;;;;;;;15.00;1.73;;;7.60;99.90;;;;;;4121723;28;20093;-83
2024/01/03 02:11:59;;;;;;;7.65;1.73;;;7.60;99.90;;;;;;4117074;28;20050;-83
2024/01/03 02:14:00;;;;;;;10.82;1.52;;;8.00;99.90;;;;;;4117209;28;20047;-83
2024/01/03 02:16:01;;;;;;;4.82;0.80;;;8.20;99.90;;;;;;4116789;28;20097;-85
2024/01/03 02:18:04;;;;;;;5.55;1.30;;;7.70;99.90;;;;;;4116969;28;20047;-82
2024/01/03 02:20:05;;;;;;;7.03;1.45;;;7.70;99.90;;;;;;4116898;28;20428;-83
2024/01/03 02:22:06;;;;;;;5.95;1.90;;;7.70;99.90;;;;;;4116371;28;20047;-83
2024/01/03 02:24:07;;;;;;;4.25;0.90;;;7.70;99.90;;;;;;4131379;28;20137;-82
2024/01/03 02:26:08;;;;;;;12.63;1.35;;;7.70;99.90;;;;;;4132282;28;20516;-83
2024/01/03 02:28:12;;;;;;;10.95;1.70;;;8.00;99.90;;;;;;4120345;28;20057;-83
2024/01/03 02:30:13;;;;;;;8.77;1.60;;;8.00;99.90;;;;;;4116905;28;20498;-82
2024/01/03 02:32:13;;;;;;;12.48;1.85;;;7.70;99.90;;;;;;4130128;28;20046;-83
2024/01/03 02:34:14;;;;;;;5.85;1.48;;;7.70;99.90;;;;;;4132836;28;20046;-83
2024/01/03 02:36:15;;;;;;;9.20;1.17;;;7.80;99.90;;;;;;4131337;28;20042;-83
2024/01/03 02:38:16;;;;;;;16.08;2.22;;;7.80;99.90;;;;;;4115424;28;20109;-82
2024/01/03 02:40:16;;;;;;;13.95;1.73;;;8.10;99.90;;;;;;4132820;28;20050;-83
2024/01/03 02:42:17;;;;;;;7.35;1.13;;;8.20;99.90;;;;;;4132829;28;20049;-83
2024/01/03 02:44:20;;;;;;;12.52;1.52;;;8.00;99.90;;;;;;4131548;28;20493;-83
2024/01/03 02:46:21;;;;;;;10.50;1.50;;;8.30;99.90;;;;;;4132520;28;20069;-83
2024/01/03 02:48:21;;;;;;;8.85;1.40;;;8.00;99.90;;;;;;4133074;28;20096;-83
2024/01/03 02:50:22;;;;;;;4.85;0.85;;;7.90;99.90;;;;;;4128944;28;20035;-83
2024/01/03 02:52:25;;;;;;;9.38;1.20;;;8.10;99.90;;;;;;4127538;28;20046;-83
2024/01/03 02:54:27;;;;;;;7.93;1.17;;;8.40;99.90;;;;;;4132360;28;20545;-84
2024/01/03 02:56:28;;;;;;;8.63;1.45;;;8.00;99.90;;;;;;4132446;28;20042;-83
2024/01/03 02:58:28;;;;;;;16.30;1.25;;;8.10;99.90;;;;;;4132730;28;20522;-83
2024/01/03 03:00:29;;;;;;;11.68;1.63;;;8.10;99.90;;;;;;4133072;28;20074;-83
2024/01/03 03:02:30;;;;;;;12.88;1.05;;;8.00;99.90;;;;;;4132402;28;20384;-83
2024/01/03 03:04:30;;;;;;;10.20;1.83;;;8.20;99.90;;;;;;4132489;28;20384;-83
2024/01/03 03:06:31;;;;;;;14.30;1.48;;;8.20;99.90;;;;;;4131825;28;20487;-83
2024/01/03 03:08:32;;;;;;;8.80;1.33;;;8.20;99.90;;;;;;4132523;28;20045;-82
2024/01/03 03:10:32;;;;;;;6.18;1.13;;;8.20;99.90;;;;;;4132437;28;20092;-83
2024/01/03 03:12:33;;;;;;;4.30;0.47;;;8.20;99.90;;;;;;4132511;28;20515;-83
2024/01/03 03:14:34;;;;;;;2.47;0.70;;;8.60;99.90;;;;;;4132049;28;20057;-83
2024/01/03 03:16:36;;;;;;;8.52;1.08;;;8.30;99.90;;;;;;4132587;28;20145;-81
2024/01/03 03:18:37;;;;;;;4.93;1.23;;;8.40;99.90;;;;;;4132605;28;20046;-82
2024/01/03 03:20:38;;;;;;;7.20;1.00;;;8.40;99.90;;;;;;4115136;28;20534;-82
2024/01/03 03:22:39;;;;;;;10.80;2.00;;;8.80;99.90;;;;;;4131877;28;20042;-82
2024/01/03 03:24:40;;;;;;;6.32;0.95;;;8.80;99.90;;;;;;4131861;28;20035;-82
2024/01/03 03:26:41;;;;;;;11.77;1.20;;;8.50;99.90;;;;;;4131662;28;20049;-82
2024/01/03 03:28:43;;;;;;;4.43;0.50;;;8.30;99.90;;;;;;4120110;28;20051;-82
2024/01/03 03:30:43;;;;;;;7.53;1.40;;;8.40;99.90;;;;;;4116028;28;20050;-83
2024/01/03 03:32:46;;;;;;;6.63;1.52;;;8.90;99.90;;;;;;4127207;28;20547;-82
2024/01/03 03:34:47;;;;;;;4.75;0.60;;;8.60;99.90;;;;;;4134173;28;20502;-82
2024/01/03 03:36:49;;;;;;;7.30;1.25;;;8.60;99.90;;;;;;4136709;28;20049;-82
2024/01/03 03:38:50;;;;;;;4.35;0.90;;;8.40;99.90;;;;;;4136847;28;20072;-82
2024/01/03 03:40:50;;;;;;;11.38;1.75;;;8.40;99.90;;;;;;4119653;28;20086;-82
2024/01/03 03:42:51;;;;;;;9.98;0.90;;;9.10;99.90;;;;;;4137682;28;20072;-82
2024/01/03 03:44:54;;;;;;;5.45;0.60;;;8.70;99.90;;;;;;4131373;28;20122;-83
2024/01/03 03:46:55;;;;;;;10.40;2.58;;;8.40;99.90;;;;;;4116640;28;20058;-82
2024/01/03 03:48:56;;;;;;;2.50;1.17;;;8.40;99.90;;;;;;4135367;28;20518;-83
2024/01/03 03:50:56;;;;;;;7.72;1.58;;;8.90;99.90;;;;;;4135467;28;20046;-83
2024/01/03 03:52:57;;;;;;;7.53;1.17;;;8.50;99.90;;;;;;4134086;28;20068;-83
2024/01/03 03:54:59;;;;;;;7.75;1.70;;;8.50;99.90;;;;;;4135257;28;20564;-83
2024/01/03 03:56:59;;;;;;;4.75;1.30;;;8.70;99.90;;;;;;4135418;28;20468;-83
2024/01/03 03:59:00;;;;;;;4.78;1.38;;;8.50;99.90;;;;;;4135308;28;20048;-83
2024/01/03 04:01:02;;;;;;;3.58;0.70;;;8.50;99.90;;;;;;4135051;28;20050;-83
2024/01/03 04:03:07;;;;;;;6.82;0.80;;;8.80;99.90;;;;;;4105994;28;20126;-84
2024/01/03 04:05:08;;;;;;;7.78;1.98;;;8.50;99.90;;;;;;4118748;28;20046;-83
2024/01/03 04:07:08;;;;;;;12.75;1.20;;;8.50;99.90;;;;;;4118785;28;20510;-83
2024/01/03 04:09:12;;;;;;;8.55;1.27;;;8.80;99.90;;;;;;4119174;28;20070;-83
2024/01/03 04:11:13;;;;;;;7.35;1.48;;;8.80;99.90;;;;;;4119038;28;20137;-83
2024/01/03 04:13:13;;;;;;;8.77;1.00;;;8.70;99.90;;;;;;4119140;28;20053;-83
2024/01/03 04:15:15;;;;;;;8.35;1.90;;;8.70;99.90;;;;;;4118920;28;20042;-82
2024/01/03 04:17:18;;;;;;;5.80;1.00;;;8.50;99.90;;;;;;4118579;28;20035;-82
2024/01/03 04:19:18;;;;;;;10.82;1.15;;;8.40;99.90;;;;;;4103868;28;20050;-83
2024/01/03 04:21:19;;;;;;;7.93;1.00;;;8.80;99.90;;;;;;4118220;28;20403;-82
2024/01/03 04:23:20;;;;;;;6.70;1.05;;;8.70;99.90;;;;;;4102633;28;20499;-83
2024/01/03 04:25:20;;;;;;;7.40;1.63;;;8.40;99.90;;;;;;4102691;29;20507;-82
2024/01/03 04:27:22;;;;;;;0.55;0.15;;;8.80;99.90;;;;;;4101171;29;20054;-83
2024/01/03 04:29:23;;;;;;;1.15;0.60;;;9.10;99.90;;;;;;4101407;29;20075;-83
2024/01/03 04:31:24;;;;;;;3.05;0.50;;;9.10;99.90;;;;;;4102677;29;20050;-83
2024/01/03 04:33:25;;;;;;;8.48;1.05;;;8.70;99.90;;;;;;4102685;28;20047;-83
2024/01/03 04:35:25;;;;;;;6.47;0.68;;;8.80;99.90;;;;;;4102315;29;20047;-82
2024/01/03 04:37:26;;;;;;;4.35;0.90;;;9.00;99.90;;;;;;4110562;28;20039;-82
2024/01/03 04:39:27;;;;;;;6.05;0.63;;;8.70;99.90;;;;;;4109904;28;20048;-83
2024/01/03 04:41:28;;;;;;;6.38;0.88;;;8.60;99.90;;;;;;4111945;28;20109;-82
2024/01/03 04:43:29;;;;;;;3.05;0.60;;;9.00;99.90;;;;;;4116805;28;20058;-83
2024/01/03 04:45:30;;;;;;;6.65;1.00;;;9.20;99.90;;;;;;4116279;28;20484;-83
2024/01/03 04:47:32;;;;;;;9.25;1.08;;;8.60;99.90;;;;;;4102326;29;20492;-82
2024/01/03 04:49:33;;;;;;;4.03;0.90;;;8.60;99.90;;;;;;4102289;28;20083;-83
2024/01/03 04:51:34;;;;;;;1.80;0.57;;;8.60;99.90;;;;;;4103952;28;20079;-83
2024/01/03 04:53:37;;;;;;;8.52;1.38;;;9.10;99.90;;;;;;4105362;28;20051;-82
2024/01/03 04:55:38;;;;;;;11.98;1.20;;;8.50;99.90;;;;;;4117823;28;20047;-83
2024/01/03 04:57:38;;;;;;;5.28;1.38;;;8.50;99.90;;;;;;4117144;28;20109;-83
2024/01/03 04:59:39;;;;;;;6.40;0.85;;;8.60;99.90;;;;;;4114558;28;20399;-83
2024/01/03 05:01:42;;;;;;;6.03;0.70;;;8.50;99.90;;;;;;4102368;29;20047;-83
2024/01/03 05:03:42;;;;;;;3.40;0.93;;;8.70;99.90;;;;;;4101107;29;20078;-83
2024/01/03 05:05:43;;;;;;;3.55;1.02;;;8.80;99.90;;;;;;4101925;29;20089;-83
2024/01/03 05:07:44;;;;;;;6.13;1.00;;;8.50;99.90;;;;;;4102005;29;20058;-83
2024/01/03 05:09:44;;;;;;;6.47;1.67;;;8.50;99.90;;;;;;4101350;29;20042;-83
2024/01/03 05:11:45;;;;;;;6.30;1.17;;;9.20;99.90;;;;;;4101938;29;20047;-83
2024/01/03 05:13:47;;;;;;;6.45;0.88;;;8.70;99.90;;;;;;4101852;29;20051;-83
2024/01/03 05:15:47;;;;;;;7.00;1.00;;;8.50;99.90;;;;;;4105278;28;20043;-83
2024/01/03 05:17:48;;;;;;;5.43;1.40;;;9.00;99.90;;;;;;4113578;28;20039;-82
2024/01/03 05:19:49;;;;;;;5.03;1.63;;;9.00;99.90;;;;;;4107799;28;20062;-83
2024/01/03 05:21:49;;;;;;;7.10;1.20;;;8.60;99.90;;;;;;4119970;28;20035;-83
2024/01/03 05:23:51;;;;;;;7.82;1.15;;;8.90;99.90;;;;;;4099869;28;20145;-83
2024/01/03 05:25:52;;;;;;;12.32;1.55;;;8.70;99.90;;;;;;4117479;28;20499;-83
2024/01/03 05:27:52;;;;;;;6.35;0.80;;;8.80;99.90;;;;;;4100357;29;20055;-83
2024/01/03 05:29:53;;;;;;;9.18;1.42;;;8.90;99.90;;;;;;4119013;28;20089;-83
2024/01/03 05:31:54;;;;;;;8.45;1.95;;;8.80;99.90;;;;;;4133476;28;20038;-83
2024/01/03 05:33:55;;;;;;;10.40;1.23;;;8.60;99.90;;;;;;4132729;28;20038;-82
2024/01/03 05:35:56;;;;;;;5.30;1.27;;;8.60;99.90;;;;;;4125749;28;20063;-83
2024/01/03 05:37:57;;;;;;;8.90;1.20;;;9.20;99.90;;;;;;4129031;28;20038;-83
2024/01/03 05:39:57;;;;;;;3.80;0.95;;;9.30;99.90;;;;;;4116200;28;20130;-83
2024/01/03 05:41:58;;;;;;;10.13;2.40;;;9.10;99.90;;;;;;4133502;28;20455;-83
2024/01/03 05:43:59;;;;;;;7.18;1.02;;;8.60;99.90;;;;;;4133411;28;20053;-82
2024/01/03 05:46:00;;;;;;;9.48;1.05;;;9.20;99.90;;;;;;4133403;28;20049;-82
2024/01/03 05:48:00;;;;;;;5.80;1.33;;;9.10;99.90;;;;;;4119868;28;20412;-82
2024/01/03 05:50:01;;;;;;;11.90;1.25;;;8.60;99.90;;;;;;4117158;28;20047;-82
2024/01/03 05:52:03;;;;;;;5.57;0.63;;;8.60;99.90;;;;;;4121273;28;20035;-82
2024/01/03 05:54:04;;;;;;;3.10;0.70;;;8.50;99.90;;;;;;4133468;28;20042;-83
2024/01/03 05:56:07;;;;;;;3.20;1.52;;;8.40;99.90;;;;;;4115262;28;20130;-82
2024/01/03 05:58:08;;;;;;;5.18;1.00;;;8.30;99.90;;;;;;4133329;28;20057;-82
2024/01/03 06:00:10;;;;;;;2.40;0.80;;;8.30;99.90;;;;;;4130931;28;20121;-82
2024/01/03 06:02:11;;;;;;;3.60;0.85;;;8.30;99.90;;;;;;4131804;28;20046;-82
2024/01/03 06:04:13;;;;;;;5.82;0.80;;;8.20;99.90;;;;;;4133701;28;20129;-82
2024/01/03 06:06:14;;;;;;;6.28;1.67;;;8.80;99.90;;;;;;4132519;28;20042;-82
2024/01/03 06:08:15;;;;;;;5.95;1.00;;;8.30;99.90;;;;;;4135813;28;20113;-81
2024/01/03 06:10:15;;;;;;;6.68;0.80;;;8.20;99.90;;;;;;4146415;28;20062;-83
2024/01/03 06:12:16;;;;;;;7.15;1.27;;;8.20;99.90;;;;;;4125105;28;20106;-82
2024/01/03 06:14:17;;;;;;;13.63;2.42;;;8.60;99.90;;;;;;4140750;28;20051;-82
2024/01/03 06:16:17;;;;;;;8.80;2.28;;;8.10;99.90;;;;;;4142415;28;20058;-82
2024/01/03 06:18:18;;;;;;;10.98;1.60;;;8.20;99.90;;;;;;4140957;28;20062;-82
2024/01/03 06:20:19;;;;;;;23.35;2.75;;;8.40;99.90;;;;;;4140676;28;20060;-83
2024/01/03 06:22:19;;;;;;;13.50;2.33;;;8.20;99.90;;;;;;4140566;28;20053;-82
2024/01/03 06:24:20;;;;;;;21.50;2.30;;;8.30;99.90;;;;;;4140056;28;20046;-82
2024/01/03 06:26:25;;;;;;;17.77;2.53;;;8.30;99.90;;;;;;4135940;28;20058;-82
2024/01/03 06:28:26;;;;;;;16.92;3.35;;;9.00;99.90;;;;;;4127138;28;20064;-83
2024/01/03 06:30:28;;;;;;;19.35;3.88;;;8.50;99.90;;;;;;4132540;28;20039;-83
2024/01/03 06:32:28;;;;;;;17.98;1.70;;;8.50;99.90;;;;;;4124576;28;20047;-83
2024/01/03 06:34:29;;;;;;;14.27;2.20;;;8.70;99.90;;;;;;4128880;28;20166;-83
2024/01/03 06:36:29;;;;;;;17.33;2.13;;;8.50;99.90;;;;;;4114958;28;20049;-82
2024/01/03 06:38:30;;;;;;;12.48;2.42;;;8.50;99.90;;;;;;4117601;28;20046;-82
2024/01/03 06:40:32;;;;;;;18.10;3.22;;;8.50;99.90;;;;;;4117658;28;20061;-83
2024/01/03 06:42:32;;;;;;;10.80;1.52;;;8.70;99.90;;;;;;4129636;28;20050;-83
2024/01/03 06:44:33;;;;;;;12.93;2.20;;;8.80;99.90;;;;;;4133548;28;20135;-82
2024/01/03 06:46:33;;;;;;;18.20;2.55;;;8.50;99.90;;;;;;4130579;28;20039;-83
2024/01/03 06:48:34;;;;;;;16.83;2.28;;;8.50;99.90;;;;;;4123904;28;20089;-83
2024/01/03 06:50:35;;;;;;;20.48;1.98;;;8.50;99.90;;;;;;4116953;28;20058;-83
2024/01/03 06:52:36;;;;;;;20.13;2.28;;;8.60;99.90;;;;;;4116788;28;20047;-83
2024/01/03 06:54:37;;;;;;;17.33;2.75;;;9.10;99.90;;;;;;4116970;28;20042;-82
2024/01/03 06:56:38;;;;;;;18.92;2.30;;;8.60;99.90;;;;;;4120457;28;20061;-83
2024/01/03 06:58:39;;;;;;;13.45;1.52;;;9.40;99.90;;;;;;4114604;28;20109;-83
2024/01/03 07:00:39;;;;;;;17.23;1.95;;;9.00;99.90;;;;;;4128257;28;20042;-83
2024/01/03 07:02:40;;;;;;;14.25;2.58;;;8.70;99.90;;;;;;4132257;28;20061;-83
2024/01/03 07:04:41;;;;;;;11.75;1.73;;;8.70;99.90;;;;;;4132504;28;20049;-83
2024/01/03 07:06:43;;;;;;;16.35;3.53;;;9.30;99.90;;;;;;4132419;28;20081;-83
2024/01/03 07:08:46;;;;;;;14.13;2.05;;;8.70;99.90;;;;;;4131513;28;20550;-83
2024/01/03 07:10:46;;;;;;;15.40;1.92;;;8.80;99.90;;;;;;4132344;28;20049;-82
2024/01/03 07:12:47;;;;;;;15.30;1.85;;;8.80;99.90;;;;;;4132776;28;20480;-84
2024/01/03 07:14:48;;;;;;;16.80;1.48;;;8.80;99.90;;;;;;4132506;28;20046;-83
2024/01/03 07:16:48;;;;;;;13.77;2.88;;;9.20;99.90;;;;;;4121748;28;20057;-82
2024/01/03 07:18:49;;;;;;;26.75;3.25;;;9.00;99.90;;;;;;4132693;28;20042;-82
2024/01/03 07:20:50;;;;;;;8.35;1.83;;;9.50;99.90;;;;;;4130509;28;20054;-82
2024/01/03 07:22:51;;;;;;;16.55;1.98;;;9.40;99.90;;;;;;4114479;28;20053;-83
2024/01/03 07:24:52;;;;;;;14.93;2.70;;;8.90;99.90;;;;;;4132469;28;20113;-83
2024/01/03 07:26:52;;;;;;;16.05;1.90;;;9.30;99.90;;;;;;4126911;28;20050;-82
2024/01/03 07:28:53;;;;;;;13.35;3.42;;;8.80;99.90;;;;;;4116794;28;20118;-82
2024/01/03 07:30:54;;;;;;;10.40;2.00;;;9.50;99.90;;;;;;4116918;28;20049;-82
2024/01/03 07:32:56;;;;;;;20.83;2.42;;;8.80;99.90;;;;;;4117238;28;20043;-82
2024/01/03 07:34:58;;;;;;;11.18;2.33;;;8.80;99.90;;;;;;4115973;28;20058;-82
2024/01/03 07:36:59;;;;;;;17.98;2.33;;;8.90;99.90;;;;;;4124503;28;20482;-83
2024/01/03 07:39:00;;;;;;;10.35;2.05;;;8.70;99.90;;;;;;4131467;28;20050;-82
2024/01/03 07:41:01;;;;;;;11.98;2.10;;;8.70;99.90;;;;;;4113621;28;20043;-82
2024/01/03 07:43:01;;;;;;;13.20;2.75;;;8.70;99.90;;;;;;4131438;28;20049;-82
2024/01/03 07:45:03;;;;;;;26.38;4.38;;;8.60;99.90;;;;;;4128472;28;20525;-83
2024/01/03 07:47:04;;;;;;;8.00;1.52;;;8.60;99.90;;;;;;4132006;28;20058;-83
2024/01/03 07:49:04;;;;;;;11.02;1.65;;;8.60;99.90;;;;;;4132031;28;20125;-83
2024/01/03 07:51:05;;;;;;;14.13;3.08;;;9.00;99.90;;;;;;4131684;28;20133;-83
2024/01/03 07:53:07;;;;;;;16.88;2.60;;;8.60;99.90;;;;;;4131985;28;20406;-83
2024/01/03 07:55:08;;;;;;;17.40;3.40;;;8.80;99.90;;;;;;4131502;28;20548;-83
2024/01/03 07:57:09;;;;;;;10.88;2.13;;;8.60;99.90;;;;;;4131099;28;20050;-83
2024/01/03 07:59:09;;;;;;;18.02;1.30;;;8.60;99.90;;;;;;4116321;28;20038;-83
2024/01/03 08:01:10;;;;;;;15.75;2.70;;;8.60;99.90;;;;;;4115537;28;20109;-82
2024/01/03 08:03:11;;;;;;;10.45;3.42;;;8.60;99.90;;;;;;4118112;28;20407;-83
2024/01/03 08:05:12;;;;;;;11.95;1.85;;;8.60;99.90;;;;;;4131716;28;20137;-83
2024/01/03 08:07:12;;;;;;;8.82;1.30;;;8.60;99.90;;;;;;4131578;28;20495;-82
2024/01/03 08:09:13;;;;;;;7.63;1.27;;;8.60;99.90;;;;;;4114602;28;20488;-83
2024/01/03 08:11:14;;;;;;;11.75;1.80;;;8.60;99.90;;;;;;4130885;28;20077;-83
2024/01/03 08:13:14;;;;;;;9.43;1.42;;;8.60;99.90;;;;;;4131992;28;20050;-83
2024/01/03 08:15:16;;;;;;;10.07;2.03;;;8.60;99.90;;;;;;4131836;28;20046;-83
2024/01/03 08:17:17;;;;;;;9.90;1.92;;;8.60;99.90;;;;;;4131838;28;20487;-83
2024/01/03 08:19:18;;;;;;;11.05;2.83;;;8.70;99.90;;;;;;4132095;28;20081;-83
2024/01/03 08:21:20;;;;;;;12.88;2.50;;;8.70;99.90;;;;;;4122395;28;20055;-82
2024/01/03 08:23:20;;;;;;;22.35;3.72;;;8.90;99.90;;;;;;4139963;28;20479;-83
2024/01/03 08:25:23;;;;;;;12.02;1.70;;;8.70;99.90;;;;;;4129590;28;20043;-82
2024/01/03 08:27:24;;;;;;;15.60;2.50;;;8.70;99.90;;;;;;4139775;28;20478;-83
2024/01/03 08:29:26;;;;;;;13.23;1.65;;;8.70;99.90;;;;;;4133689;28;20494;-88
2024/01/03 08:31:27;;;;;;;13.13;1.77;;;8.70;99.90;;;;;;4130566;28;20042;-83
2024/01/03 08:33:27;;;;;;;12.20;1.63;;;8.80;99.90;;;;;;4134720;28;20513;-83
2024/01/03 08:35:28;;;;;;;12.52;1.83;;;8.70;99.90;;;;;;4118311;28;20053;-82
2024/01/03 08:37:29;;;;;;;14.23;1.60;;;8.80;99.90;;;;;;4134167;28;20054;-85
2024/01/03 08:39:30;;;;;;;17.05;2.08;;;9.00;99.90;;;;;;4116824;28;20054;-84
2024/01/03 08:41:31;;;;;;;9.90;1.73;;;8.70;99.90;;;;;;4133986;28;20065;-83
2024/01/03 08:43:33;;;;;;;12.57;3.28;;;8.70;99.90;;;;;;4134404;28;20050;-83
2024/01/03 08:45:35;;;;;;;7.80;1.02;;;8.70;99.90;;;;;;4134730;28;20046;-83
2024/01/03 08:47:36;;;;;;;8.70;1.38;;;8.70;99.90;;;;;;4133391;28;20514;-83
2024/01/03 08:49:37;;;;;;;10.00;1.58;;;8.70;99.90;;;;;;4133906;28;20511;-83
2024/01/03 08:51:38;;;;;;;9.63;1.95;;;8.70;99.90;;;;;;4133952;28;20053;-83
2024/01/03 08:53:40;;;;;;;14.38;2.25;;;8.70;99.90;;;;;;4133642;28;20553;-83
2024/01/03 08:55:40;;;;;;;8.35;1.38;;;8.70;99.90;;;;;;4117419;28;20039;-83
2024/01/03 08:57:56;;;;;;;9.15;1.25;;;8.70;99.90;;;;;;4148831;28;20037;-83
2024/01/03 08:59:57;;;;;;;7.68;1.00;;;8.70;99.90;;;;;;4139380;28;20058;-83
2024/01/03 09:01:58;;;;;;;6.53;1.35;;;8.70;99.90;;;;;;4109827;29;20055;-83
2024/01/03 09:03:58;;;;;;;9.77;2.35;;;8.60;99.90;;;;;;4128590;28;20573;-83
2024/01/03 09:06:03;;;;;;;6.45;1.27;;;8.60;99.90;;;;;;4111778;29;20055;-83
2024/01/03 09:08:04;;;;;;;13.77;2.45;;;8.60;99.90;;;;;;4126578;28;20051;-83
2024/01/03 09:10:06;;;;;;;10.52;1.50;;;8.60;99.90;;;;;;4126261;28;20067;-84
2024/01/03 09:12:07;;;;;;;9.77;1.88;;;8.60;99.90;;;;;;4124601;28;20105;-82
2024/01/03 09:14:16;;;;;;;8.77;2.70;;;8.60;99.90;;;;;;4131613;28;20490;-83
2024/01/03 09:16:28;;;;;;;9.63;2.65;;;8.70;99.90;;;;;;4136211;28;20038;-83
2024/01/03 09:18:29;;;;;;;13.50;1.67;;;8.80;99.90;;;;;;4134445;28;20089;-82
2024/01/03 09:20:31;;;;;;;14.95;1.75;;;8.80;99.90;;;;;;4133204;28;20054;-83
2024/01/03 09:22:32;;;;;;;12.38;2.13;;;9.00;99.90;;;;;;4134311;28;20511;-83
2024/01/03 09:24:33;;;;;;;11.05;2.15;;;9.00;99.90;;;;;;4133849;28;20056;-83
2024/01/03 09:26:33;;;;;;;10.10;1.60;;;9.10;99.90;;;;;;4116769;28;20112;-83
2024/01/03 09:28:37;;;;;;;12.75;2.05;;;9.10;99.90;;;;;;4133852;28;20369;-82
2024/01/03 09:30:39;;;;;;;9.07;1.33;;;9.10;99.90;;;;;;4133575;28;20116;-83
2024/01/03 09:32:41;;;;;;;12.38;2.17;;;9.10;99.90;;;;;;4133630;28;20046;-83
2024/01/03 09:34:42;;;;;;;14.32;1.60;;;9.10;99.90;;;;;;4134318;28;20053;-82
2024/01/03 09:36:42;;;;;;;11.95;1.52;;;9.20;99.90;;;;;;4134022;28;20064;-82
2024/01/03 09:38:43;;;;;;;7.32;1.15;;;9.30;99.90;;;;;;4134635;28;20073;-82
2024/01/03 09:40:44;;;;;;;8.35;1.35;;;9.10;99.90;;;;;;4132919;28;20042;-82
2024/01/03 09:42:47;;;;;;;8.88;1.45;;;9.00;99.90;;;;;;4111630;28;20035;-82
2024/01/03 09:44:48;;;;;;;10.57;1.40;;;9.00;99.90;;;;;;4134907;28;20829;-83
2024/01/03 09:46:49;;;;;;;11.38;1.88;;;8.90;99.90;;;;;;4147234;28;20035;-85
2024/01/03 09:48:50;;;;;;;8.68;1.30;;;8.80;99.90;;;;;;4129216;28;20073;-82
2024/01/03 09:50:51;;;;;;;9.82;1.98;;;8.70;99.90;;;;;;4128022;28;20034;-82
2024/01/03 09:52:56;;;;;;;9.80;1.65;;;8.70;99.90;;;;;;4137018;28;20042;-82
2024/01/03 09:54:57;;;;;;;6.72;0.98;;;8.60;99.90;;;;;;4139995;28;20076;-82
2024/01/03 09:56:58;;;;;;;10.88;2.05;;;8.60;99.90;;;;;;4148363;28;20038;-82
2024/01/03 09:58:58;;;;;;;8.93;1.52;;;8.70;99.90;;;;;;4144818;28;20038;-82
2024/01/03 10:00:59;;;;;;;12.43;1.60;;;8.60;99.90;;;;;;4129820;28;20039;-82
2024/01/03 10:03:04;;;;;;;13.55;2.25;;;8.60;99.90;;;;;;4129741;28;20131;-83
2024/01/03 10:05:06;;;;;;;8.68;1.80;;;8.50;99.90;;;;;;4144682;28;20050;-83
2024/01/03 10:07:06;;;;;;;15.77;2.05;;;8.50;99.90;;;;;;4144477;28;20042;-83
2024/01/03 10:09:11;;;;;;;8.73;1.15;;;8.50;99.90;;;;;;4125925;28;20097;-82
2024/01/03 10:11:20;;;;;;;10.60;2.53;;;8.60;99.90;;;;;;4126977;28;20047;-83
2024/01/03 10:13:27;;;;;;;6.60;1.05;;;8.90;99.90;;;;;;4124140;28;20047;-83
2024/01/03 10:15:31;;;;;;;12.35;1.20;;;8.80;99.90;;;;;;4132258;28;20100;-83
2024/01/03 10:17:33;;;;;;;7.43;1.23;;;8.70;99.90;;;;;;4121024;28;20124;-83
2024/01/03 10:19:33;;;;;;;14.70;1.55;;;8.80;99.90;;;;;;4134301;28;20582;-82
2024/01/03 10:21:44;;;;;;;7.70;1.40;;;8.80;99.90;;;;;;4131295;28;20039;-82
2024/01/03 10:23:59;;;;;;;7.55;1.63;;;8.80;99.90;;;;;;4123258;28;20042;-82
2024/01/03 10:26:00;;;;;;;7.15;0.90;;;8.80;99.90;;;;;;4132420;28;20403;-83
2024/01/03 10:28:02;;;;;;;11.52;1.08;;;8.90;99.90;;;;;;4131732;28;20042;-82
2024/01/03 10:30:23;;;;;;;13.02;1.80;;;8.90;99.90;;;;;;4115659;28;20050;-83
2024/01/03 10:32:24;;;;;;;10.45;1.30;;;9.00;99.90;;;;;;4133237;28;20510;-82
2024/01/03 10:34:25;;;;;;;9.15;1.75;;;8.90;99.90;;;;;;4130875;28;20038;-83
2024/01/03 10:36:27;;;;;;;7.25;1.17;;;8.90;99.90;;;;;;4132090;28;20053;-83
2024/01/03 10:38:29;;;;;;;12.60;2.08;;;9.00;99.90;;;;;;4131754;28;20090;-82